sensor_id;sensor_type;location;lat;lon;timestamp;P1;durP1;ratioP1;P2;durP2;ratioP2
52676;SDS011;38570;0.000;0.000;2022-10-16T00:01:11;6.63;;;2.00;;
52676;SDS011;38570;0.000;0.000;2022-10-16T00:03:39;3.38;;;2.00;;
52676;SDS011;38570;0.000;0.000;2022-10-16T00:06:05;4.78;;;1.92;;
52676;SDS011;38570;0.000;0.000;2022-10-16T00:08:32;4.85;;;1.90;;
52676;SDS011;38570;0.000;0.000;2022-10-16T00:10:59;4.05;;;2.10;;
52676;SDS011;38570;0.000;0.000;2022-10-16T00:13:26;4.45;;;2.00;;
52676;SDS011;38570;0.000;0.000;2022-10-16T00:15:54;5.38;;;2.00;;
52676;SDS011;38570;0.000;0.000;2022-10-16T00:18:20;4.07;;;2.30;;
52676;SDS011;38570;0.000;0.000;2022-10-16T00:20:46;4.32;;;1.90;;
52676;SDS011;38570;0.000;0.000;2022-10-16T00:23:11;2.92;;;1.90;;
52676;SDS011;38570;0.000;0.000;2022-10-16T00:25:37;4.38;;;2.15;;
52676;SDS011;38570;0.000;0.000;2022-10-16T00:28:02;3.55;;;1.88;;
52676;SDS011;38570;0.000;0.000;2022-10-16T00:30:27;6.03;;;1.95;;
52676;SDS011;38570;0.000;0.000;2022-10-16T00:32:54;5.38;;;1.95;;
52676;SDS011;38570;0.000;0.000;2022-10-16T00:35:19;3.50;;;1.98;;
52676;SDS011;38570;0.000;0.000;2022-10-16T00:37:45;3.97;;;2.00;;
52676;SDS011;38570;0.000;0.000;2022-10-16T00:40:10;3.15;;;1.75;;
52676;SDS011;38570;0.000;0.000;2022-10-16T00:42:36;6.00;;;1.95;;
52676;SDS011;38570;0.000;0.000;2022-10-16T00:45:02;4.90;;;1.90;;
52676;SDS011;38570;0.000;0.000;2022-10-16T00:47:32;3.17;;;1.75;;
52676;SDS011;38570;0.000;0.000;2022-10-16T00:50:08;4.75;;;1.80;;
52676;SDS011;38570;0.000;0.000;2022-10-16T00:52:51;3.72;;;1.88;;
52676;SDS011;38570;0.000;0.000;2022-10-16T00:55:18;3.67;;;1.95;;
52676;SDS011;38570;0.000;0.000;2022-10-16T00:57:44;3.90;;;1.95;;
52676;SDS011;38570;0.000;0.000;2022-10-16T01:00:11;4.35;;;2.30;;
52676;SDS011;38570;0.000;0.000;2022-10-16T01:02:39;4.93;;;2.20;;
52676;SDS011;38570;0.000;0.000;2022-10-16T01:05:04;3.60;;;1.60;;
52676;SDS011;38570;0.000;0.000;2022-10-16T01:07:41;3.92;;;1.77;;
52676;SDS011;38570;0.000;0.000;2022-10-16T01:13:07;2.92;;;1.70;;
52676;SDS011;38570;0.000;0.000;2022-10-16T01:18:24;3.55;;;1.88;;
52676;SDS011;38570;0.000;0.000;2022-10-16T01:21:05;5.22;;;1.83;;
52676;SDS011;38570;0.000;0.000;2022-10-16T01:23:36;4.32;;;1.92;;
52676;SDS011;38570;0.000;0.000;2022-10-16T01:29:11;4.70;;;1.98;;
52676;SDS011;38570;0.000;0.000;2022-10-16T01:31:44;3.88;;;1.75;;
52676;SDS011;38570;0.000;0.000;2022-10-16T01:34:17;3.60;;;1.83;;
52676;SDS011;38570;0.000;0.000;2022-10-16T01:36:49;3.78;;;1.88;;
52676;SDS011;38570;0.000;0.000;2022-10-16T01:39:19;3.83;;;1.70;;
52676;SDS011;38570;0.000;0.000;2022-10-16T01:42:09;3.20;;;1.70;;
52676;SDS011;38570;0.000;0.000;2022-10-16T01:44:36;3.38;;;1.90;;
52676;SDS011;38570;0.000;0.000;2022-10-16T01:47:04;4.35;;;2.00;;
52676;SDS011;38570;0.000;0.000;2022-10-16T01:49:33;4.28;;;1.90;;
52676;SDS011;38570;0.000;0.000;2022-10-16T01:52:02;4.43;;;1.77;;
52676;SDS011;38570;0.000;0.000;2022-10-16T01:54:33;5.78;;;2.13;;
52676;SDS011;38570;0.000;0.000;2022-10-16T01:57:02;3.40;;;1.90;;
52676;SDS011;38570;0.000;0.000;2022-10-16T01:59:36;5.05;;;2.05;;
52676;SDS011;38570;0.000;0.000;2022-10-16T02:02:07;3.92;;;1.73;;
52676;SDS011;38570;0.000;0.000;2022-10-16T02:04:36;4.30;;;1.45;;
52676;SDS011;38570;0.000;0.000;2022-10-16T02:07:04;4.40;;;1.52;;
52676;SDS011;38570;0.000;0.000;2022-10-16T02:09:34;3.33;;;1.80;;
52676;SDS011;38570;0.000;0.000;2022-10-16T02:12:03;3.78;;;1.85;;
52676;SDS011;38570;0.000;0.000;2022-10-16T02:14:36;4.18;;;2.03;;
52676;SDS011;38570;0.000;0.000;2022-10-16T02:17:10;4.45;;;1.80;;
52676;SDS011;38570;0.000;0.000;2022-10-16T02:19:38;5.28;;;1.70;;
52676;SDS011;38570;0.000;0.000;2022-10-16T02:22:04;3.35;;;1.77;;
52676;SDS011;38570;0.000;0.000;2022-10-16T02:30:30;2.55;;;1.50;;
52676;SDS011;38570;0.000;0.000;2022-10-16T02:33:01;3.65;;;1.60;;
52676;SDS011;38570;0.000;0.000;2022-10-16T02:35:29;4.43;;;1.80;;
52676;SDS011;38570;0.000;0.000;2022-10-16T02:37:56;3.95;;;1.70;;
52676;SDS011;38570;0.000;0.000;2022-10-16T02:40:22;3.85;;;1.60;;
52676;SDS011;38570;0.000;0.000;2022-10-16T02:42:50;2.40;;;1.48;;
52676;SDS011;38570;0.000;0.000;2022-10-16T02:45:16;3.35;;;1.60;;
52676;SDS011;38570;0.000;0.000;2022-10-16T02:47:42;2.47;;;1.40;;
52676;SDS011;38570;0.000;0.000;2022-10-16T02:50:08;3.88;;;1.70;;
52676;SDS011;38570;0.000;0.000;2022-10-16T02:52:34;2.80;;;1.40;;
52676;SDS011;38570;0.000;0.000;2022-10-16T02:54:59;3.05;;;1.67;;
52676;SDS011;38570;0.000;0.000;2022-10-16T02:57:25;2.95;;;1.50;;
52676;SDS011;38570;0.000;0.000;2022-10-16T02:59:50;3.03;;;1.60;;
52676;SDS011;38570;0.000;0.000;2022-10-16T03:02:16;3.58;;;1.67;;
52676;SDS011;38570;0.000;0.000;2022-10-16T03:04:41;2.78;;;1.70;;
52676;SDS011;38570;0.000;0.000;2022-10-16T03:07:06;3.35;;;1.60;;
52676;SDS011;38570;0.000;0.000;2022-10-16T03:09:32;2.95;;;1.48;;
52676;SDS011;38570;0.000;0.000;2022-10-16T03:11:58;3.15;;;1.67;;
52676;SDS011;38570;0.000;0.000;2022-10-16T03:14:23;3.33;;;1.70;;
52676;SDS011;38570;0.000;0.000;2022-10-16T03:16:49;2.90;;;1.40;;
52676;SDS011;38570;0.000;0.000;2022-10-16T03:19:15;4.03;;;1.55;;
52676;SDS011;38570;0.000;0.000;2022-10-16T03:21:41;2.55;;;1.50;;
52676;SDS011;38570;0.000;0.000;2022-10-16T03:24:07;3.50;;;1.80;;
52676;SDS011;38570;0.000;0.000;2022-10-16T03:26:32;2.30;;;1.40;;
52676;SDS011;38570;0.000;0.000;2022-10-16T03:28:57;4.00;;;1.70;;
52676;SDS011;38570;0.000;0.000;2022-10-16T03:31:23;3.60;;;1.50;;
52676;SDS011;38570;0.000;0.000;2022-10-16T03:33:48;4.28;;;1.60;;
52676;SDS011;38570;0.000;0.000;2022-10-16T03:36:13;3.00;;;1.65;;
52676;SDS011;38570;0.000;0.000;2022-10-16T03:38:39;3.78;;;1.70;;
52676;SDS011;38570;0.000;0.000;2022-10-16T03:41:04;2.58;;;1.45;;
52676;SDS011;38570;0.000;0.000;2022-10-16T03:43:30;3.72;;;1.60;;
52676;SDS011;38570;0.000;0.000;2022-10-16T03:45:55;3.15;;;1.40;;
52676;SDS011;38570;0.000;0.000;2022-10-16T03:48:20;3.08;;;1.60;;
52676;SDS011;38570;0.000;0.000;2022-10-16T03:50:46;3.67;;;1.60;;
52676;SDS011;38570;0.000;0.000;2022-10-16T03:53:13;3.92;;;1.67;;
52676;SDS011;38570;0.000;0.000;2022-10-16T03:55:40;3.00;;;1.33;;
52676;SDS011;38570;0.000;0.000;2022-10-16T03:58:06;1.77;;;1.30;;
52676;SDS011;38570;0.000;0.000;2022-10-16T04:00:31;3.17;;;1.42;;
52676;SDS011;38570;0.000;0.000;2022-10-16T04:02:57;3.50;;;1.83;;
52676;SDS011;38570;0.000;0.000;2022-10-16T04:05:22;2.85;;;1.60;;
52676;SDS011;38570;0.000;0.000;2022-10-16T04:07:47;3.45;;;1.52;;
52676;SDS011;38570;0.000;0.000;2022-10-16T04:10:13;2.92;;;1.50;;
52676;SDS011;38570;0.000;0.000;2022-10-16T04:12:38;3.05;;;1.50;;
52676;SDS011;38570;0.000;0.000;2022-10-16T04:15:04;2.30;;;1.30;;
52676;SDS011;38570;0.000;0.000;2022-10-16T04:17:29;2.90;;;1.50;;
52676;SDS011;38570;0.000;0.000;2022-10-16T04:19:54;3.10;;;1.30;;
52676;SDS011;38570;0.000;0.000;2022-10-16T04:22:20;4.13;;;1.40;;
52676;SDS011;38570;0.000;0.000;2022-10-16T04:24:46;3.35;;;1.50;;
52676;SDS011;38570;0.000;0.000;2022-10-16T04:27:11;2.60;;;1.52;;
52676;SDS011;38570;0.000;0.000;2022-10-16T04:29:36;3.42;;;1.30;;
52676;SDS011;38570;0.000;0.000;2022-10-16T04:32:02;3.75;;;1.50;;
52676;SDS011;38570;0.000;0.000;2022-10-16T04:34:27;4.10;;;1.50;;
52676;SDS011;38570;0.000;0.000;2022-10-16T04:36:53;2.97;;;1.40;;
52676;SDS011;38570;0.000;0.000;2022-10-16T04:39:18;8.98;;;2.33;;
52676;SDS011;38570;0.000;0.000;2022-10-16T04:41:43;4.78;;;1.70;;
52676;SDS011;38570;0.000;0.000;2022-10-16T04:44:09;2.90;;;1.70;;
52676;SDS011;38570;0.000;0.000;2022-10-16T04:46:34;2.97;;;1.50;;
52676;SDS011;38570;0.000;0.000;2022-10-16T04:49:00;2.72;;;1.23;;
52676;SDS011;38570;0.000;0.000;2022-10-16T04:51:25;3.40;;;1.33;;
52676;SDS011;38570;0.000;0.000;2022-10-16T04:53:52;3.35;;;1.42;;
52676;SDS011;38570;0.000;0.000;2022-10-16T04:56:18;4.65;;;1.38;;
52676;SDS011;38570;0.000;0.000;2022-10-16T04:58:43;3.47;;;1.38;;
52676;SDS011;38570;0.000;0.000;2022-10-16T05:01:08;4.25;;;1.65;;
52676;SDS011;38570;0.000;0.000;2022-10-16T05:03:34;3.00;;;1.30;;
52676;SDS011;38570;0.000;0.000;2022-10-16T05:05:59;4.30;;;1.50;;
52676;SDS011;38570;0.000;0.000;2022-10-16T05:08:25;2.38;;;1.40;;
52676;SDS011;38570;0.000;0.000;2022-10-16T05:10:50;7.25;;;1.65;;
52676;SDS011;38570;0.000;0.000;2022-10-16T05:13:16;5.30;;;1.70;;
52676;SDS011;38570;0.000;0.000;2022-10-16T05:15:41;6.65;;;1.70;;
52676;SDS011;38570;0.000;0.000;2022-10-16T05:18:07;4.57;;;1.42;;
52676;SDS011;38570;0.000;0.000;2022-10-16T05:20:33;4.60;;;1.40;;
52676;SDS011;38570;0.000;0.000;2022-10-16T05:22:58;3.75;;;1.30;;
52676;SDS011;38570;0.000;0.000;2022-10-16T05:25:24;3.55;;;1.40;;
52676;SDS011;38570;0.000;0.000;2022-10-16T05:27:49;3.25;;;1.20;;
52676;SDS011;38570;0.000;0.000;2022-10-16T05:30:15;4.95;;;1.73;;
52676;SDS011;38570;0.000;0.000;2022-10-16T05:32:45;7.32;;;1.88;;
52676;SDS011;38570;0.000;0.000;2022-10-16T05:35:12;10.85;;;1.70;;
52676;SDS011;38570;0.000;0.000;2022-10-16T05:37:37;4.47;;;1.45;;
52676;SDS011;38570;0.000;0.000;2022-10-16T05:40:03;5.35;;;1.38;;
52676;SDS011;38570;0.000;0.000;2022-10-16T05:42:30;6.22;;;1.50;;
52676;SDS011;38570;0.000;0.000;2022-10-16T05:44:55;9.18;;;1.80;;
52676;SDS011;38570;0.000;0.000;2022-10-16T05:47:21;4.88;;;1.60;;
52676;SDS011;38570;0.000;0.000;2022-10-16T05:49:46;6.32;;;1.55;;
52676;SDS011;38570;0.000;0.000;2022-10-16T05:52:12;5.47;;;1.73;;
52676;SDS011;38570;0.000;0.000;2022-10-16T05:54:37;12.32;;;1.70;;
52676;SDS011;38570;0.000;0.000;2022-10-16T05:57:03;8.00;;;1.70;;
52676;SDS011;38570;0.000;0.000;2022-10-16T05:59:30;13.40;;;1.60;;
52676;SDS011;38570;0.000;0.000;2022-10-16T06:01:55;8.30;;;1.60;;
52676;SDS011;38570;0.000;0.000;2022-10-16T06:04:21;10.10;;;1.67;;
52676;SDS011;38570;0.000;0.000;2022-10-16T06:06:46;11.80;;;2.60;;
52676;SDS011;38570;0.000;0.000;2022-10-16T06:09:11;17.95;;;1.83;;
52676;SDS011;38570;0.000;0.000;2022-10-16T06:11:37;11.63;;;1.75;;
52676;SDS011;38570;0.000;0.000;2022-10-16T06:14:02;13.18;;;2.03;;
52676;SDS011;38570;0.000;0.000;2022-10-16T06:16:31;16.95;;;2.30;;
52676;SDS011;38570;0.000;0.000;2022-10-16T06:18:59;18.27;;;2.38;;
52676;SDS011;38570;0.000;0.000;2022-10-16T06:21:25;20.20;;;2.53;;
52676;SDS011;38570;0.000;0.000;2022-10-16T06:23:52;22.52;;;2.60;;
52676;SDS011;38570;0.000;0.000;2022-10-16T06:26:19;20.33;;;2.88;;
52676;SDS011;38570;0.000;0.000;2022-10-16T06:28:46;22.02;;;2.80;;
52676;SDS011;38570;0.000;0.000;2022-10-16T06:31:12;27.77;;;2.80;;
52676;SDS011;38570;0.000;0.000;2022-10-16T06:33:37;18.20;;;2.25;;
52676;SDS011;38570;0.000;0.000;2022-10-16T06:36:13;17.13;;;2.88;;
52676;SDS011;38570;0.000;0.000;2022-10-16T06:38:41;12.70;;;2.28;;
52676;SDS011;38570;0.000;0.000;2022-10-16T06:41:07;14.05;;;2.33;;
52676;SDS011;38570;0.000;0.000;2022-10-16T06:43:34;12.75;;;2.60;;
52676;SDS011;38570;0.000;0.000;2022-10-16T06:46:03;20.65;;;2.20;;
52676;SDS011;38570;0.000;0.000;2022-10-16T06:48:30;13.63;;;1.88;;
52676;SDS011;38570;0.000;0.000;2022-10-16T06:51:00;15.80;;;1.98;;
52676;SDS011;38570;0.000;0.000;2022-10-16T06:53:32;10.38;;;2.10;;
52676;SDS011;38570;0.000;0.000;2022-10-16T06:56:06;14.85;;;5.18;;
52676;SDS011;38570;0.000;0.000;2022-10-16T06:58:33;9.73;;;4.88;;
52676;SDS011;38570;0.000;0.000;2022-10-16T07:00:58;16.75;;;4.30;;
52676;SDS011;38570;0.000;0.000;2022-10-16T07:03:23;6.88;;;3.00;;
52676;SDS011;38570;0.000;0.000;2022-10-16T07:05:49;5.75;;;3.17;;
52676;SDS011;38570;0.000;0.000;2022-10-16T07:08:14;3.53;;;1.92;;
52676;SDS011;38570;0.000;0.000;2022-10-16T07:10:40;4.45;;;2.10;;
52676;SDS011;38570;0.000;0.000;2022-10-16T07:13:05;4.45;;;1.90;;
52676;SDS011;38570;0.000;0.000;2022-10-16T07:15:32;6.68;;;1.92;;
52676;SDS011;38570;0.000;0.000;2022-10-16T07:17:58;9.80;;;2.80;;
52676;SDS011;38570;0.000;0.000;2022-10-16T07:20:23;54.20;;;29.20;;
52676;SDS011;38570;0.000;0.000;2022-10-16T07:22:48;17.08;;;9.07;;
52676;SDS011;38570;0.000;0.000;2022-10-16T07:25:14;14.20;;;7.90;;
52676;SDS011;38570;0.000;0.000;2022-10-16T07:27:39;15.52;;;6.68;;
52676;SDS011;38570;0.000;0.000;2022-10-16T07:30:05;16.80;;;8.13;;
52676;SDS011;38570;0.000;0.000;2022-10-16T07:32:31;12.52;;;4.43;;
52676;SDS011;38570;0.000;0.000;2022-10-16T07:34:57;7.57;;;3.17;;
52676;SDS011;38570;0.000;0.000;2022-10-16T07:37:23;12.05;;;3.17;;
52676;SDS011;38570;0.000;0.000;2022-10-16T07:39:48;5.07;;;2.67;;
52676;SDS011;38570;0.000;0.000;2022-10-16T07:42:13;8.55;;;2.40;;
52676;SDS011;38570;0.000;0.000;2022-10-16T07:44:39;5.47;;;2.10;;
52676;SDS011;38570;0.000;0.000;2022-10-16T07:47:05;7.95;;;3.00;;
52676;SDS011;38570;0.000;0.000;2022-10-16T07:49:31;4.53;;;2.40;;
52676;SDS011;38570;0.000;0.000;2022-10-16T07:51:56;4.60;;;2.10;;
52676;SDS011;38570;0.000;0.000;2022-10-16T07:54:21;8.25;;;2.20;;
52676;SDS011;38570;0.000;0.000;2022-10-16T07:56:47;6.32;;;2.10;;
52676;SDS011;38570;0.000;0.000;2022-10-16T07:59:12;9.88;;;2.20;;
52676;SDS011;38570;0.000;0.000;2022-10-16T08:01:37;6.07;;;1.90;;
52676;SDS011;38570;0.000;0.000;2022-10-16T08:04:03;4.10;;;1.60;;
52676;SDS011;38570;0.000;0.000;2022-10-16T08:06:28;7.80;;;1.75;;
52676;SDS011;38570;0.000;0.000;2022-10-16T08:08:54;4.03;;;1.65;;
52676;SDS011;38570;0.000;0.000;2022-10-16T08:11:20;2.60;;;1.55;;
52676;SDS011;38570;0.000;0.000;2022-10-16T08:13:45;7.20;;;1.90;;
52676;SDS011;38570;0.000;0.000;2022-10-16T08:16:11;4.75;;;1.50;;
52676;SDS011;38570;0.000;0.000;2022-10-16T08:18:37;3.65;;;1.50;;
52676;SDS011;38570;0.000;0.000;2022-10-16T08:21:04;5.95;;;1.67;;
52676;SDS011;38570;0.000;0.000;2022-10-16T08:23:30;4.18;;;1.60;;
52676;SDS011;38570;0.000;0.000;2022-10-16T08:25:56;5.75;;;1.80;;
52676;SDS011;38570;0.000;0.000;2022-10-16T08:28:34;4.80;;;2.00;;
52676;SDS011;38570;0.000;0.000;2022-10-16T08:31:13;2.55;;;1.40;;
52676;SDS011;38570;0.000;0.000;2022-10-16T08:33:41;4.47;;;1.60;;
52676;SDS011;38570;0.000;0.000;2022-10-16T08:36:08;4.43;;;1.80;;
52676;SDS011;38570;0.000;0.000;2022-10-16T08:38:34;5.35;;;1.55;;
52676;SDS011;38570;0.000;0.000;2022-10-16T08:47:08;5.60;;;1.60;;
52676;SDS011;38570;0.000;0.000;2022-10-16T08:49:43;4.35;;;1.70;;
52676;SDS011;38570;0.000;0.000;2022-10-16T08:52:20;4.00;;;1.70;;
52676;SDS011;38570;0.000;0.000;2022-10-16T08:54:46;3.53;;;1.48;;
52676;SDS011;38570;0.000;0.000;2022-10-16T08:57:22;5.22;;;1.60;;
52676;SDS011;38570;0.000;0.000;2022-10-16T08:59:49;3.65;;;1.85;;
52676;SDS011;38570;0.000;0.000;2022-10-16T09:07:58;4.25;;;1.70;;
52676;SDS011;38570;0.000;0.000;2022-10-16T09:13:23;6.72;;;1.95;;
52676;SDS011;38570;0.000;0.000;2022-10-16T09:18:48;8.23;;;2.35;;
52676;SDS011;38570;0.000;0.000;2022-10-16T09:23:48;7.97;;;1.75;;
52676;SDS011;38570;0.000;0.000;2022-10-16T09:26:14;10.10;;;2.35;;
52676;SDS011;38570;0.000;0.000;2022-10-16T09:28:43;6.15;;;1.98;;
52676;SDS011;38570;0.000;0.000;2022-10-16T09:31:18;8.70;;;2.00;;
52676;SDS011;38570;0.000;0.000;2022-10-16T09:33:47;6.10;;;1.80;;
52676;SDS011;38570;0.000;0.000;2022-10-16T09:36:15;5.03;;;2.38;;
52676;SDS011;38570;0.000;0.000;2022-10-16T09:38:41;6.15;;;2.17;;
52676;SDS011;38570;0.000;0.000;2022-10-16T09:43:57;14.10;;;3.03;;
52676;SDS011;38570;0.000;0.000;2022-10-16T09:48:56;7.82;;;1.98;;
52676;SDS011;38570;0.000;0.000;2022-10-16T09:51:33;5.80;;;1.80;;
52676;SDS011;38570;0.000;0.000;2022-10-16T09:54:01;6.35;;;2.15;;
52676;SDS011;38570;0.000;0.000;2022-10-16T09:56:37;8.77;;;2.28;;
52676;SDS011;38570;0.000;0.000;2022-10-16T09:59:11;11.02;;;2.17;;
52676;SDS011;38570;0.000;0.000;2022-10-16T10:01:39;5.68;;;2.00;;
52676;SDS011;38570;0.000;0.000;2022-10-16T10:04:07;9.32;;;2.20;;
52676;SDS011;38570;0.000;0.000;2022-10-16T10:06:34;8.68;;;2.20;;
52676;SDS011;38570;0.000;0.000;2022-10-16T10:09:16;10.68;;;1.80;;
52676;SDS011;38570;0.000;0.000;2022-10-16T10:11:49;9.40;;;2.00;;
52676;SDS011;38570;0.000;0.000;2022-10-16T10:14:18;6.82;;;1.65;;
52676;SDS011;38570;0.000;0.000;2022-10-16T10:16:46;6.50;;;1.88;;
52676;SDS011;38570;0.000;0.000;2022-10-16T10:19:19;11.45;;;2.40;;
52676;SDS011;38570;0.000;0.000;2022-10-16T10:21:49;34.67;;;2.75;;
52676;SDS011;38570;0.000;0.000;2022-10-16T10:24:16;8.70;;;1.73;;
52676;SDS011;38570;0.000;0.000;2022-10-16T10:32:36;8.35;;;2.30;;
52676;SDS011;38570;0.000;0.000;2022-10-16T10:46:10;6.25;;;2.05;;
52676;SDS011;38570;0.000;0.000;2022-10-16T10:48:46;6.55;;;1.70;;
52676;SDS011;38570;0.000;0.000;2022-10-16T10:54:20;5.63;;;1.90;;
52676;SDS011;38570;0.000;0.000;2022-10-16T10:57:00;5.55;;;1.85;;
52676;SDS011;38570;0.000;0.000;2022-10-16T11:02:26;6.72;;;1.80;;
52676;SDS011;38570;0.000;0.000;2022-10-16T11:07:51;9.88;;;2.30;;
52676;SDS011;38570;0.000;0.000;2022-10-16T11:10:21;8.15;;;1.80;;
52676;SDS011;38570;0.000;0.000;2022-10-16T11:12:50;11.35;;;2.30;;
52676;SDS011;38570;0.000;0.000;2022-10-16T11:15:29;9.65;;;2.20;;
52676;SDS011;38570;0.000;0.000;2022-10-16T11:18:00;8.50;;;2.10;;
52676;SDS011;38570;0.000;0.000;2022-10-16T11:20:42;6.35;;;2.20;;
52676;SDS011;38570;0.000;0.000;2022-10-16T11:23:35;6.85;;;2.33;;
52676;SDS011;38570;0.000;0.000;2022-10-16T11:26:08;14.15;;;2.95;;
52676;SDS011;38570;0.000;0.000;2022-10-16T11:28:51;5.93;;;2.50;;
52676;SDS011;38570;0.000;0.000;2022-10-16T11:31:25;11.82;;;3.35;;
52676;SDS011;38570;0.000;0.000;2022-10-16T11:34:06;8.88;;;2.42;;
52676;SDS011;38570;0.000;0.000;2022-10-16T11:39:25;13.52;;;2.80;;
52676;SDS011;38570;0.000;0.000;2022-10-16T11:55:49;7.05;;;2.50;;
52676;SDS011;38570;0.000;0.000;2022-10-16T12:03:45;11.32;;;2.40;;
52676;SDS011;38570;0.000;0.000;2022-10-16T12:06:26;7.07;;;2.30;;
52676;SDS011;38570;0.000;0.000;2022-10-16T12:09:04;10.15;;;2.47;;
52676;SDS011;38570;0.000;0.000;2022-10-16T12:11:31;11.60;;;2.92;;
52676;SDS011;38570;0.000;0.000;2022-10-16T12:16:37;5.68;;;2.17;;
52676;SDS011;38570;0.000;0.000;2022-10-16T12:19:31;8.15;;;2.10;;
52676;SDS011;38570;0.000;0.000;2022-10-16T12:21:58;9.85;;;2.30;;
52676;SDS011;38570;0.000;0.000;2022-10-16T12:24:42;6.40;;;2.30;;
52676;SDS011;38570;0.000;0.000;2022-10-16T12:29:57;11.18;;;2.03;;
52676;SDS011;38570;0.000;0.000;2022-10-16T12:32:34;8.32;;;2.28;;
52676;SDS011;38570;0.000;0.000;2022-10-16T12:35:03;10.75;;;2.58;;
52676;SDS011;38570;0.000;0.000;2022-10-16T12:37:31;12.13;;;2.20;;
52676;SDS011;38570;0.000;0.000;2022-10-16T12:39:59;17.27;;;4.15;;
52676;SDS011;38570;0.000;0.000;2022-10-16T12:42:36;12.50;;;3.40;;
52676;SDS011;38570;0.000;0.000;2022-10-16T12:45:12;14.30;;;3.58;;
52676;SDS011;38570;0.000;0.000;2022-10-16T12:48:02;12.50;;;3.50;;
52676;SDS011;38570;0.000;0.000;2022-10-16T12:50:43;11.57;;;3.40;;
52676;SDS011;38570;0.000;0.000;2022-10-16T12:53:22;10.50;;;3.42;;
52676;SDS011;38570;0.000;0.000;2022-10-16T12:58:56;9.60;;;2.53;;
52676;SDS011;38570;0.000;0.000;2022-10-16T13:06:54;11.55;;;2.63;;
52676;SDS011;38570;0.000;0.000;2022-10-16T13:12:31;6.10;;;2.15;;
52676;SDS011;38570;0.000;0.000;2022-10-16T13:15:12;9.40;;;2.03;;
52676;SDS011;38570;0.000;0.000;2022-10-16T13:18:05;13.93;;;2.87;;
52676;SDS011;38570;0.000;0.000;2022-10-16T13:20:53;12.40;;;2.35;;
52676;SDS011;38570;0.000;0.000;2022-10-16T13:23:30;17.60;;;2.65;;
52676;SDS011;38570;0.000;0.000;2022-10-16T13:28:38;7.90;;;1.90;;
52676;SDS011;38570;0.000;0.000;2022-10-16T13:31:04;7.03;;;2.20;;
52676;SDS011;38570;0.000;0.000;2022-10-16T13:33:39;10.02;;;2.25;;
52676;SDS011;38570;0.000;0.000;2022-10-16T13:36:23;8.48;;;2.40;;
52676;SDS011;38570;0.000;0.000;2022-10-16T13:41:58;7.32;;;1.92;;
52676;SDS011;38570;0.000;0.000;2022-10-16T13:44:23;4.95;;;1.45;;
52676;SDS011;38570;0.000;0.000;2022-10-16T13:46:57;5.93;;;1.70;;
52676;SDS011;38570;0.000;0.000;2022-10-16T13:49:23;6.18;;;1.90;;
52676;SDS011;38570;0.000;0.000;2022-10-16T13:51:55;6.05;;;1.98;;
52676;SDS011;38570;0.000;0.000;2022-10-16T13:54:23;4.72;;;1.40;;
52676;SDS011;38570;0.000;0.000;2022-10-16T13:56:49;5.22;;;1.70;;
52676;SDS011;38570;0.000;0.000;2022-10-16T13:59:22;5.65;;;1.73;;
52676;SDS011;38570;0.000;0.000;2022-10-16T14:01:53;5.53;;;1.63;;
52676;SDS011;38570;0.000;0.000;2022-10-16T14:04:22;6.47;;;1.70;;
52676;SDS011;38570;0.000;0.000;2022-10-16T14:06:49;6.90;;;1.90;;
52676;SDS011;38570;0.000;0.000;2022-10-16T14:11:53;3.95;;;1.70;;
52676;SDS011;38570;0.000;0.000;2022-10-16T14:14:22;6.15;;;1.80;;
52676;SDS011;38570;0.000;0.000;2022-10-16T14:16:48;5.97;;;1.48;;
52676;SDS011;38570;0.000;0.000;2022-10-16T14:19:27;4.68;;;1.70;;
52676;SDS011;38570;0.000;0.000;2022-10-16T14:21:54;3.55;;;1.42;;
52676;SDS011;38570;0.000;0.000;2022-10-16T14:26:55;3.45;;;1.30;;
52676;SDS011;38570;0.000;0.000;2022-10-16T14:29:21;3.28;;;1.45;;
52676;SDS011;38570;0.000;0.000;2022-10-16T14:32:22;3.50;;;1.58;;
52676;SDS011;38570;0.000;0.000;2022-10-16T14:34:52;3.58;;;1.50;;
52676;SDS011;38570;0.000;0.000;2022-10-16T14:39:49;3.83;;;1.55;;
52676;SDS011;38570;0.000;0.000;2022-10-16T14:42:19;3.25;;;1.50;;
52676;SDS011;38570;0.000;0.000;2022-10-16T14:44:48;3.45;;;1.70;;
52676;SDS011;38570;0.000;0.000;2022-10-16T14:47:18;5.00;;;1.55;;
52676;SDS011;38570;0.000;0.000;2022-10-16T14:49:50;3.65;;;1.70;;
52676;SDS011;38570;0.000;0.000;2022-10-16T14:52:16;3.30;;;1.75;;
52676;SDS011;38570;0.000;0.000;2022-10-16T14:54:42;3.83;;;1.60;;
52676;SDS011;38570;0.000;0.000;2022-10-16T14:57:17;2.47;;;1.30;;
52676;SDS011;38570;0.000;0.000;2022-10-16T14:59:44;4.53;;;1.60;;
52676;SDS011;38570;0.000;0.000;2022-10-16T15:04:55;2.30;;;1.33;;
52676;SDS011;38570;0.000;0.000;2022-10-16T15:07:21;3.15;;;1.40;;
52676;SDS011;38570;0.000;0.000;2022-10-16T15:09:47;5.70;;;1.70;;
52676;SDS011;38570;0.000;0.000;2022-10-16T15:12:12;4.00;;;1.85;;
52676;SDS011;38570;0.000;0.000;2022-10-16T15:14:38;3.58;;;1.40;;
52676;SDS011;38570;0.000;0.000;2022-10-16T15:17:03;2.95;;;1.25;;
52676;SDS011;38570;0.000;0.000;2022-10-16T15:19:29;3.97;;;1.52;;
52676;SDS011;38570;0.000;0.000;2022-10-16T15:21:55;5.47;;;1.75;;
52676;SDS011;38570;0.000;0.000;2022-10-16T15:24:21;3.13;;;1.30;;
52676;SDS011;38570;0.000;0.000;2022-10-16T15:26:46;3.20;;;1.48;;
52676;SDS011;38570;0.000;0.000;2022-10-16T15:29:12;4.43;;;1.50;;
52676;SDS011;38570;0.000;0.000;2022-10-16T15:31:38;2.92;;;1.23;;
52676;SDS011;38570;0.000;0.000;2022-10-16T15:34:03;4.07;;;1.42;;
52676;SDS011;38570;0.000;0.000;2022-10-16T15:36:32;4.90;;;1.40;;
52676;SDS011;38570;0.000;0.000;2022-10-16T15:39:01;7.10;;;1.70;;
52676;SDS011;38570;0.000;0.000;2022-10-16T15:41:27;30.20;;;4.35;;
52676;SDS011;38570;0.000;0.000;2022-10-16T15:43:53;22.13;;;3.60;;
52676;SDS011;38570;0.000;0.000;2022-10-16T15:46:19;19.40;;;3.40;;
52676;SDS011;38570;0.000;0.000;2022-10-16T15:48:45;16.02;;;2.83;;
52676;SDS011;38570;0.000;0.000;2022-10-16T15:51:11;11.00;;;3.40;;
52676;SDS011;38570;0.000;0.000;2022-10-16T15:53:37;12.32;;;3.03;;
52676;SDS011;38570;0.000;0.000;2022-10-16T15:56:03;15.35;;;2.90;;
52676;SDS011;38570;0.000;0.000;2022-10-16T15:58:29;7.55;;;2.88;;
52676;SDS011;38570;0.000;0.000;2022-10-16T16:00:58;25.70;;;3.80;;
52676;SDS011;38570;0.000;0.000;2022-10-16T16:03:28;13.73;;;3.70;;
52676;SDS011;38570;0.000;0.000;2022-10-16T16:05:54;16.92;;;3.00;;
52676;SDS011;38570;0.000;0.000;2022-10-16T16:08:20;15.88;;;2.47;;
52676;SDS011;38570;0.000;0.000;2022-10-16T16:10:45;18.50;;;3.20;;
52676;SDS011;38570;0.000;0.000;2022-10-16T16:13:11;36.53;;;4.13;;
52676;SDS011;38570;0.000;0.000;2022-10-16T16:15:39;26.92;;;4.05;;
52676;SDS011;38570;0.000;0.000;2022-10-16T16:18:05;24.88;;;4.03;;
52676;SDS011;38570;0.000;0.000;2022-10-16T16:20:31;19.13;;;3.22;;
52676;SDS011;38570;0.000;0.000;2022-10-16T16:22:57;20.35;;;3.65;;
52676;SDS011;38570;0.000;0.000;2022-10-16T16:25:22;14.75;;;2.92;;
52676;SDS011;38570;0.000;0.000;2022-10-16T16:27:48;12.10;;;3.15;;
52676;SDS011;38570;0.000;0.000;2022-10-16T16:30:13;18.50;;;3.53;;
52676;SDS011;38570;0.000;0.000;2022-10-16T16:32:38;13.00;;;3.45;;
52676;SDS011;38570;0.000;0.000;2022-10-16T16:35:04;13.38;;;3.45;;
52676;SDS011;38570;0.000;0.000;2022-10-16T16:37:30;14.30;;;3.33;;
52676;SDS011;38570;0.000;0.000;2022-10-16T16:39:55;12.25;;;3.05;;
52676;SDS011;38570;0.000;0.000;2022-10-16T16:42:23;9.52;;;2.90;;
52676;SDS011;38570;0.000;0.000;2022-10-16T16:44:50;12.68;;;3.00;;
52676;SDS011;38570;0.000;0.000;2022-10-16T16:47:15;23.77;;;3.22;;
52676;SDS011;38570;0.000;0.000;2022-10-16T16:49:41;11.70;;;2.90;;
52676;SDS011;38570;0.000;0.000;2022-10-16T16:52:06;13.13;;;3.10;;
52676;SDS011;38570;0.000;0.000;2022-10-16T16:54:32;17.55;;;4.13;;
52676;SDS011;38570;0.000;0.000;2022-10-16T16:56:57;11.35;;;3.20;;
52676;SDS011;38570;0.000;0.000;2022-10-16T16:59:23;15.20;;;3.03;;
52676;SDS011;38570;0.000;0.000;2022-10-16T17:01:48;15.70;;;3.45;;
52676;SDS011;38570;0.000;0.000;2022-10-16T17:04:14;11.63;;;3.45;;
52676;SDS011;38570;0.000;0.000;2022-10-16T17:06:40;17.38;;;3.20;;